Time;durP1;ratioP1;P1;durP2;ratioP2;P2;SDS_P1;SDS_P2;PMS_P1;PMS_P2;Temp;Humidity;BMP_temperature;BMP_pressure;BME280_temperature;BME280_humidity;BME280_pressure;Samples;Min_cycle;Max_cycle;Signal;HPM_P1;HPM_P2
2021/07/04 00:01:03;;;;;;;7.53;4.95;;;14.30;96.00;;;;;;5076263;28;20024;-84
2021/07/04 00:03:29;;;;;;;7.82;5.30;;;14.20;95.80;;;;;;5069167;28;20487;-83
2021/07/04 00:05:55;;;;;;;9.13;5.90;;;14.20;95.60;;;;;;5055088;28;20036;-85
2021/07/04 00:08:24;;;;;;;8.15;4.97;;;14.10;95.60;;;;;;5050839;28;20033;-84
2021/07/04 00:10:57;;;;;;;8.27;5.75;;;14.00;95.50;;;;;;5040878;28;20469;-84
2021/07/04 00:13:23;;;;;;;9.00;5.35;;;14.00;95.20;;;;;;5055702;28;20032;-85
2021/07/04 00:15:49;;;;;;;8.98;5.30;;;14.00;95.20;;;;;;5057377;28;20021;-84
2021/07/04 00:18:21;;;;;;;8.57;5.60;;;14.00;95.10;;;;;;5051809;28;20032;-85
2021/07/04 00:20:48;;;;;;;9.73;5.50;;;14.00;95.00;;;;;;5054757;28;20021;-85
2021/07/04 00:23:15;;;;;;;8.82;5.38;;;14.00;94.90;;;;;;5069774;28;20420;-84
2021/07/04 00:25:45;;;;;;;8.98;5.82;;;14.00;94.90;;;;;;5056772;28;20060;-85
2021/07/04 00:28:12;;;;;;;8.57;5.55;;;14.10;94.80;;;;;;5050654;28;20329;-85
2021/07/04 00:30:38;;;;;;;7.80;4.88;;;14.10;95.00;;;;;;5054118;28;20048;-84
2021/07/04 00:33:05;;;;;;;7.90;5.07;;;14.10;94.90;;;;;;5061597;28;20024;-85
2021/07/04 00:35:31;;;;;;;8.05;5.43;;;14.10;95.00;;;;;;5056790;28;20440;-84
2021/07/04 00:37:57;;;;;;;9.45;6.07;;;14.00;95.10;;;;;;5055871;28;20047;-84
2021/07/04 00:40:23;;;;;;;11.77;6.45;;;14.10;94.80;;;;;;5056869;28;20437;-85
2021/07/04 00:42:50;;;;;;;11.20;6.60;;;14.10;95.00;;;;;;5041606;28;20032;-85
2021/07/04 00:45:20;;;;;;;10.70;7.13;;;14.10;95.00;;;;;;5057399;28;20095;-84
2021/07/04 00:47:46;;;;;;;10.75;7.03;;;14.10;94.90;;;;;;5055343;28;20028;-85
2021/07/04 00:50:13;;;;;;;10.65;6.70;;;14.10;94.80;;;;;;5053977;28;20368;-84
2021/07/04 00:52:39;;;;;;;11.48;7.25;;;14.10;94.90;;;;;;5056402;28;20079;-85
2021/07/04 00:55:07;;;;;;;11.80;7.00;;;14.10;95.00;;;;;;5069844;28;20039;-85
2021/07/04 00:57:34;;;;;;;11.55;7.10;;;14.20;94.80;;;;;;5059022;28;20028;-85
2021/07/04 01:00:00;;;;;;;11.02;7.05;;;14.10;95.10;;;;;;5055203;28;20025;-85
2021/07/04 01:02:27;;;;;;;10.48;6.85;;;14.20;95.00;;;;;;5056486;28;20082;-85
2021/07/04 01:04:54;;;;;;;12.68;7.88;;;14.20;95.20;;;;;;5055599;28;20086;-85
2021/07/04 01:07:21;;;;;;;13.50;7.60;;;14.10;95.10;;;;;;5055025;28;20039;-85
2021/07/04 01:09:46;;;;;;;10.05;6.95;;;14.10;94.90;;;;;;5055349;28;20047;-85
2021/07/04 01:12:12;;;;;;;10.95;7.03;;;14.10;94.70;;;;;;5041125;28;20030;-85
2021/07/04 01:14:38;;;;;;;14.30;7.22;;;14.10;95.10;;;;;;5035670;28;20030;-86
2021/07/04 01:17:04;;;;;;;11.45;7.53;;;14.10;94.80;;;;;;5039884;28;20029;-85
2021/07/04 01:19:29;;;;;;;12.77;7.80;;;14.10;94.80;;;;;;5070723;28;20021;-86
2021/07/04 01:21:57;;;;;;;12.07;7.22;;;14.10;94.90;;;;;;5061477;28;20083;-85
2021/07/04 01:24:23;;;;;;;12.25;7.82;;;14.20;94.80;;;;;;5056478;28;20318;-85
2021/07/04 01:26:49;;;;;;;10.77;6.93;;;14.20;94.80;;;;;;5056911;28;20028;-86
2021/07/04 01:29:15;;;;;;;11.65;7.28;;;14.20;94.70;;;;;;5055109;28;20421;-85
2021/07/04 01:31:41;;;;;;;11.13;6.97;;;14.20;94.50;;;;;;5045947;28;20094;-86
2021/07/04 01:34:07;;;;;;;13.35;8.20;;;14.30;94.90;;;;;;5054242;28;20425;-86
2021/07/04 01:36:34;;;;;;;11.60;8.05;;;14.30;95.10;;;;;;5055535;28;20036;-85
2021/07/04 01:39:01;;;;;;;16.08;8.05;;;14.30;95.20;;;;;;5055026;28;20052;-85
2021/07/04 01:41:26;;;;;;;10.30;7.60;;;14.30;94.90;;;;;;5055191;28;20037;-85
2021/07/04 01:43:52;;;;;;;10.25;7.78;;;14.30;94.90;;;;;;5053738;28;20036;-84
2021/07/04 01:46:21;;;;;;;10.63;7.55;;;14.30;94.90;;;;;;5052319;28;20095;-85
2021/07/04 01:48:46;;;;;;;14.70;7.75;;;14.40;94.90;;;;;;5052944;28;20365;-85
2021/07/04 01:51:12;;;;;;;11.75;7.85;;;14.30;94.90;;;;;;5041241;28;20074;-85
2021/07/04 01:53:38;;;;;;;12.45;7.65;;;14.30;94.90;;;;;;5055471;28;20333;-86
2021/07/04 01:56:10;;;;;;;13.30;8.38;;;14.20;95.20;;;;;;5055598;28;20025;-85
2021/07/04 01:58:38;;;;;;;10.30;7.30;;;14.20;95.30;;;;;;5040502;28;20112;-85
2021/07/04 02:01:05;;;;;;;11.50;7.05;;;14.20;94.70;;;;;;5054087;28;20029;-85
2021/07/04 02:03:31;;;;;;;11.63;7.03;;;14.20;94.90;;;;;;5054039;28;20078;-85
2021/07/04 02:05:57;;;;;;;11.50;7.00;;;14.20;94.50;;;;;;5055177;28;20037;-85
2021/07/04 02:08:23;;;;;;;12.32;7.82;;;14.30;94.50;;;;;;5065419;28;20063;-86
2021/07/04 02:10:48;;;;;;;11.68;8.00;;;14.30;94.70;;;;;;5074871;28;20031;-85
2021/07/04 02:13:14;;;;;;;14.25;7.32;;;14.20;95.10;;;;;;5059837;28;20125;-86
2021/07/04 02:15:41;;;;;;;12.02;7.35;;;14.30;94.90;;;;;;5055732;28;20438;-85
2021/07/04 02:18:13;;;;;;;10.23;7.40;;;14.30;94.90;;;;;;5047605;28;20040;-85
2021/07/04 02:20:42;;;;;;;16.20;7.35;;;14.30;95.50;;;;;;5033549;28;20026;-85
2021/07/04 02:23:14;;;;;;;12.02;7.47;;;14.30;95.60;;;;;;5047284;28;20021;-85
2021/07/04 02:25:41;;;;;;;12.20;7.53;;;14.30;95.60;;;;;;5062865;28;20012;-85
2021/07/04 02:28:09;;;;;;;11.27;7.22;;;14.30;95.50;;;;;;5066673;28;20025;-88
2021/07/04 02:30:36;;;;;;;11.65;6.90;;;14.30;95.60;;;;;;5055018;28;20021;-87
2021/07/04 02:33:06;;;;;;;8.52;5.97;;;14.30;95.70;;;;;;5053996;28;20032;-87
2021/07/04 02:35:36;;;;;;;9.48;6.80;;;14.30;95.70;;;;;;5054553;28;20021;-86
2021/07/04 02:38:04;;;;;;;10.93;7.45;;;14.30;95.70;;;;;;5060210;28;20029;-86
2021/07/04 02:40:30;;;;;;;9.90;7.28;;;14.30;95.70;;;;;;5054364;28;20021;-86
2021/07/04 02:42:56;;;;;;;10.70;6.90;;;14.30;95.90;;;;;;5048811;28;20028;-86
2021/07/04 02:45:25;;;;;;;10.45;6.70;;;14.20;95.90;;;;;;5055030;28;20068;-85
2021/07/04 02:47:51;;;;;;;10.68;7.50;;;14.30;95.40;;;;;;5051693;28;20116;-86
2021/07/04 02:50:21;;;;;;;10.32;7.45;;;14.30;95.70;;;;;;5054079;28;20096;-86
2021/07/04 02:52:53;;;;;;;10.98;7.32;;;14.30;95.70;;;;;;5049983;28;20070;-86
2021/07/04 02:55:20;;;;;;;11.43;7.38;;;14.30;95.60;;;;;;5053182;28;20413;-85
2021/07/04 02:57:47;;;;;;;8.90;6.63;;;14.20;95.60;;;;;;5054621;28;20037;-86
2021/07/04 03:00:16;;;;;;;11.63;7.20;;;14.20;95.30;;;;;;5053204;28;20491;-86
2021/07/04 03:02:42;;;;;;;12.95;7.07;;;14.20;95.60;;;;;;5053956;28;20421;-85
2021/07/04 03:05:09;;;;;;;9.95;6.95;;;14.20;95.40;;;;;;5048695;28;20028;-85
2021/07/04 03:07:36;;;;;;;13.00;7.68;;;14.20;95.50;;;;;;5053937;28;20409;-84
2021/07/04 03:10:07;;;;;;;12.25;7.40;;;14.20;95.40;;;;;;5038639;28;20438;-85
2021/07/04 03:12:33;;;;;;;10.98;7.28;;;14.20;95.70;;;;;;5045247;28;20028;-85
2021/07/04 03:14:58;;;;;;;13.30;7.85;;;14.10;95.50;;;;;;5058402;28;20062;-85
2021/07/04 03:17:24;;;;;;;14.75;7.47;;;14.10;95.40;;;;;;5036926;28;20017;-85
2021/07/04 03:19:50;;;;;;;11.35;6.90;;;14.10;95.50;;;;;;5037093;28;20026;-85
2021/07/04 03:22:16;;;;;;;11.35;7.70;;;14.00;95.30;;;;;;5047385;28;20037;-85
2021/07/04 03:24:41;;;;;;;11.65;7.32;;;14.00;95.30;;;;;;5049878;28;20024;-86
2021/07/04 03:27:08;;;;;;;11.02;8.18;;;13.90;95.40;;;;;;5054049;28;20044;-86
2021/07/04 03:29:34;;;;;;;13.10;6.70;;;13.90;95.30;;;;;;5053976;28;20334;-86
2021/07/04 03:32:00;;;;;;;10.43;7.50;;;13.90;95.20;;;;;;5053351;28;20555;-87
2021/07/04 03:34:26;;;;;;;11.57;7.72;;;13.90;95.30;;;;;;5052591;28;20102;-86
2021/07/04 03:36:52;;;;;;;10.13;7.07;;;13.80;95.10;;;;;;5040318;28;20029;-87
2021/07/04 03:39:18;;;;;;;11.18;6.82;;;13.80;95.20;;;;;;5039302;28;20025;-86
2021/07/04 03:41:44;;;;;;;10.57;6.97;;;13.80;95.00;;;;;;5054350;28;20384;-86
2021/07/04 03:44:10;;;;;;;9.98;7.78;;;13.80;95.10;;;;;;5050640;28;20040;-86
2021/07/04 03:46:36;;;;;;;11.52;7.50;;;13.90;95.40;;;;;;5051557;28;20028;-86
2021/07/04 03:49:02;;;;;;;9.57;6.93;;;13.80;95.40;;;;;;5050473;28;20055;-86
2021/07/04 03:51:27;;;;;;;10.32;7.60;;;13.90;95.30;;;;;;5053778;28;20035;-86
2021/07/04 03:53:53;;;;;;;11.25;6.97;;;13.90;95.20;;;;;;5053918;28;20017;-86
2021/07/04 03:56:19;;;;;;;12.63;7.53;;;13.90;95.20;;;;;;5052123;28;20017;-87
2021/07/04 03:58:45;;;;;;;13.73;7.18;;;14.00;95.30;;;;;;5053747;28;20051;-87
2021/07/04 04:01:18;;;;;;;11.73;7.28;;;13.90;95.40;;;;;;5052334;28;20052;-87
2021/07/04 04:03:44;;;;;;;9.93;7.03;;;13.90;95.30;;;;;;5053186;28;20035;-87
2021/07/04 04:06:10;;;;;;;11.13;7.57;;;13.90;95.40;;;;;;5051915;28;20037;-87
2021/07/04 04:08:35;;;;;;;11.63;7.13;;;13.90;95.10;;;;;;5052994;28;20048;-87
2021/07/04 04:11:01;;;;;;;10.23;8.00;;;14.00;95.30;;;;;;5052605;28;20025;-87
2021/07/04 04:13:27;;;;;;;10.13;7.47;;;14.10;95.70;;;;;;5053929;28;20410;-86
2021/07/04 04:15:52;;;;;;;16.95;7.57;;;14.10;95.70;;;;;;5033794;28;20021;-87
2021/07/04 04:18:19;;;;;;;11.77;7.03;;;14.10;95.70;;;;;;5041771;28;20021;-87
2021/07/04 04:20:44;;;;;;;11.02;7.57;;;14.10;95.70;;;;;;5051946;28;20025;-86
2021/07/04 04:23:10;;;;;;;11.73;7.90;;;14.10;95.60;;;;;;5052586;28;20082;-87
2021/07/04 04:25:36;;;;;;;13.10;7.18;;;14.10;95.60;;;;;;5053344;28;20374;-87
2021/07/04 04:28:04;;;;;;;11.98;7.63;;;14.20;95.50;;;;;;5053220;28;20147;-87
2021/07/04 04:30:32;;;;;;;12.57;7.40;;;14.20;95.80;;;;;;5053256;28;20112;-87
2021/07/04 04:32:57;;;;;;;10.68;6.82;;;14.30;95.70;;;;;;5052516;28;20029;-88
2021/07/04 04:35:23;;;;;;;11.00;7.03;;;14.30;95.80;;;;;;5052413;28;20032;-87
2021/07/04 04:37:50;;;;;;;9.65;7.20;;;14.30;96.10;;;;;;5052755;28;20020;-88
2021/07/04 04:40:15;;;;;;;9.88;6.82;;;14.20;96.00;;;;;;5064359;28;20025;-87
2021/07/04 04:42:41;;;;;;;10.35;6.57;;;14.30;96.00;;;;;;5058342;28;20360;-87
2021/07/04 04:45:08;;;;;;;12.52;7.18;;;14.40;96.00;;;;;;5050956;28;20135;-87
2021/07/04 04:47:34;;;;;;;13.77;7.90;;;14.40;96.00;;;;;;5043891;28;20362;-88
2021/07/04 04:49:59;;;;;;;11.45;7.80;;;14.50;96.20;;;;;;5034698;28;20033;-89
2021/07/04 04:52:25;;;;;;;11.15;7.35;;;14.60;96.50;;;;;;5048084;28;20021;-88
2021/07/04 04:54:51;;;;;;;13.02;6.97;;;14.70;97.00;;;;;;5056886;28;20021;-88
2021/07/04 04:57:17;;;;;;;12.23;6.97;;;14.80;96.80;;;;;;5055118;28;20033;-88
2021/07/04 04:59:45;;;;;;;9.90;6.72;;;14.90;97.00;;;;;;5057353;28;20025;-87
2021/07/04 05:02:11;;;;;;;9.75;6.32;;;15.00;97.10;;;;;;5048457;28;20064;-87
2021/07/04 05:04:38;;;;;;;10.13;6.78;;;15.20;97.30;;;;;;5050864;28;20370;-86
2021/07/04 05:07:04;;;;;;;11.88;6.93;;;15.40;97.70;;;;;;5056118;28;20029;-86
2021/07/04 05:09:31;;;;;;;9.45;6.10;;;15.60;98.00;;;;;;5058516;28;20111;-86
2021/07/04 05:12:00;;;;;;;9.73;6.38;;;15.80;98.00;;;;;;5054427;28;20040;-86
2021/07/04 05:14:25;;;;;;;8.38;5.55;;;15.90;98.00;;;;;;5056164;28;20097;-86
2021/07/04 05:16:51;;;;;;;8.20;5.65;;;16.20;98.00;;;;;;5045759;28;20104;-86
2021/07/04 05:19:17;;;;;;;9.95;6.10;;;16.30;98.00;;;;;;5056644;28;20047;-87
2021/07/04 05:21:43;;;;;;;9.40;5.75;;;16.50;98.00;;;;;;5042547;28;20363;-86
2021/07/04 05:24:11;;;;;;;7.70;5.57;;;16.70;98.00;;;;;;5038141;28;20076;-88
2021/07/04 05:26:40;;;;;;;7.88;5.28;;;16.70;98.00;;;;;;5052710;28;20052;-88
2021/07/04 05:29:07;;;;;;;8.93;5.50;;;16.60;98.00;;;;;;5057695;28;20466;-88
2021/07/04 05:31:33;;;;;;;8.32;5.57;;;16.50;98.00;;;;;;5055923;28;20052;-87
2021/07/04 05:33:59;;;;;;;11.68;6.28;;;16.50;98.00;;;;;;5056736;28;20425;-88
2021/07/04 05:36:25;;;;;;;8.55;5.35;;;16.60;98.00;;;;;;5057224;28;20029;-87
2021/07/04 05:38:52;;;;;;;8.32;5.35;;;16.70;98.00;;;;;;5071259;28;20040;-87
2021/07/04 05:41:21;;;;;;;8.05;5.57;;;16.80;98.00;;;;;;5065182;28;20033;-87
2021/07/04 05:43:48;;;;;;;9.98;5.63;;;16.90;98.00;;;;;;5056798;28;20048;-87
2021/07/04 05:46:14;;;;;;;8.23;5.00;;;16.80;98.00;;;;;;5056516;28;20111;-88
2021/07/04 05:48:42;;;;;;;8.98;6.07;;;16.70;98.00;;;;;;5053782;28;20485;-88
2021/07/04 05:51:09;;;;;;;9.02;5.72;;;16.80;98.00;;;;;;5056235;28;20036;-87
2021/07/04 05:53:35;;;;;;;8.23;5.72;;;16.70;98.00;;;;;;5056723;28;20460;-87
2021/07/04 05:56:00;;;;;;;7.57;5.50;;;16.60;98.00;;;;;;5057422;28;20025;-87
2021/07/04 05:58:26;;;;;;;8.85;6.13;;;16.60;98.00;;;;;;5056113;28;20452;-87
2021/07/04 06:00:52;;;;;;;11.00;5.97;;;16.50;98.00;;;;;;5049607;28;20094;-86
2021/07/04 06:03:18;;;;;;;8.95;5.72;;;16.50;98.00;;;;;;5057124;28;20029;-87
2021/07/04 06:05:43;;;;;;;7.88;5.55;;;16.50;98.00;;;;;;5054115;28;20574;-87
2021/07/04 06:08:09;;;;;;;9.15;6.10;;;16.40;98.00;;;;;;5056324;28;20033;-87
2021/07/04 06:10:36;;;;;;;9.10;5.40;;;16.50;98.00;;;;;;5060165;28;20066;-87
2021/07/04 06:13:02;;;;;;;8.38;5.70;;;16.60;98.00;;;;;;5053244;28;20022;-87
2021/07/04 06:15:28;;;;;;;8.00;5.30;;;16.80;98.00;;;;;;5037565;28;20028;-86
2021/07/04 06:17:54;;;;;;;10.15;5.63;;;17.00;98.00;;;;;;5052347;28;20333;-86
2021/07/04 06:20:23;;;;;;;13.32;5.28;;;17.10;98.00;;;;;;5055918;28;20104;-87
2021/07/04 06:22:50;;;;;;;8.23;5.05;;;17.30;98.00;;;;;;5056637;28;20108;-87
2021/07/04 06:25:16;;;;;;;9.38;5.38;;;17.50;98.00;;;;;;5056386;28;20451;-87
2021/07/04 06:27:45;;;;;;;9.35;5.53;;;17.70;97.40;;;;;;5046308;28;20033;-87
2021/07/04 06:30:12;;;;;;;9.25;5.43;;;18.00;96.60;;;;;;5075866;28;20483;-87
2021/07/04 06:32:39;;;;;;;9.77;5.57;;;18.10;96.40;;;;;;5056839;28;20021;-87
2021/07/04 06:35:07;;;;;;;9.57;5.70;;;18.10;96.00;;;;;;5055439;28;20074;-87
2021/07/04 06:37:33;;;;;;;14.52;6.65;;;18.10;95.50;;;;;;5045426;28;20035;-87
2021/07/04 06:39:58;;;;;;;9.35;5.63;;;18.00;95.40;;;;;;5044480;28;20433;-88
2021/07/04 06:42:24;;;;;;;8.23;5.57;;;18.10;95.60;;;;;;5054558;28;20043;-88
2021/07/04 06:44:50;;;;;;;7.70;5.45;;;18.20;95.80;;;;;;5055667;28;20056;-87
2021/07/04 06:47:16;;;;;;;7.75;5.50;;;18.30;95.40;;;;;;5041320;28;20052;-87
2021/07/04 06:49:41;;;;;;;12.40;5.60;;;18.30;95.20;;;;;;5058890;28;20410;-86
2021/07/04 06:52:08;;;;;;;7.80;5.15;;;18.50;94.90;;;;;;5057307;28;20431;-87
2021/07/04 06:54:34;;;;;;;19.05;7.15;;;18.60;95.50;;;;;;5055901;28;20100;-87
2021/07/04 06:59:43;;;;;;;9.20;5.90;;;18.90;94.60;;;;;;5036371;28;20461;-86
2021/07/04 07:02:11;;;;;;;10.50;6.20;;;19.50;93.90;;;;;;5049747;28;20064;-88
2021/07/04 07:04:36;;;;;;;9.27;5.78;;;19.60;92.30;;;;;;5054434;28;20508;-87
2021/07/04 07:07:02;;;;;;;11.13;5.70;;;19.60;93.20;;;;;;5055032;28;20043;-88
2021/07/04 07:09:28;;;;;;;9.63;6.32;;;19.70;92.30;;;;;;5054582;28;20104;-88
2021/07/04 07:11:54;;;;;;;12.32;5.82;;;19.70;92.80;;;;;;5047110;28;20402;-88
2021/07/04 07:14:21;;;;;;;10.75;5.70;;;19.70;93.10;;;;;;5066790;28;20028;-87
2021/07/04 07:16:48;;;;;;;8.80;5.88;;;19.90;92.00;;;;;;5056079;28;20025;-87
2021/07/04 07:19:13;;;;;;;8.82;5.20;;;20.10;91.40;;;;;;5053682;28;20063;-87
2021/07/04 07:21:42;;;;;;;11.40;5.78;;;19.80;91.90;;;;;;5054117;28;20029;-87
2021/07/04 07:24:09;;;;;;;9.02;5.50;;;19.20;93.20;;;;;;5035910;28;20021;-87
2021/07/04 07:26:35;;;;;;;10.05;5.55;;;19.00;93.90;;;;;;5051983;28;20021;-87
2021/07/04 07:29:01;;;;;;;9.73;5.78;;;19.00;93.90;;;;;;5055332;28;20029;-87
2021/07/04 07:31:27;;;;;;;7.75;5.22;;;18.90;93.50;;;;;;5058516;28;20024;-87
2021/07/04 07:33:53;;;;;;;9.70;5.85;;;18.90;93.60;;;;;;5034605;28;20044;-87
2021/07/04 07:36:19;;;;;;;8.38;5.22;;;19.10;93.80;;;;;;5053735;28;20410;-87
2021/07/04 07:38:44;;;;;;;7.13;4.65;;;20.30;92.50;;;;;;5052311;28;20078;-87
2021/07/04 07:41:10;;;;;;;7.38;4.07;;;22.10;88.50;;;;;;5036940;28;20060;-88
2021/07/04 07:43:36;;;;;;;6.68;4.28;;;23.20;84.00;;;;;;5035615;28;20033;-87
2021/07/04 07:46:02;;;;;;;7.13;4.55;;;24.70;80.60;;;;;;5044479;28;20045;-87
2021/07/04 07:48:28;;;;;;;6.97;4.07;;;24.60;79.10;;;;;;5043110;28;20423;-88
2021/07/04 07:50:54;;;;;;;7.90;4.03;;;25.40;76.60;;;;;;5044543;28;20030;-87
2021/07/04 07:53:19;;;;;;;7.82;4.47;;;25.20;74.90;;;;;;5030921;28;20078;-87
2021/07/04 07:55:45;;;;;;;6.43;3.72;;;24.30;76.50;;;;;;5034753;28;20030;-87
2021/07/04 07:58:11;;;;;;;10.02;3.80;;;23.60;79.90;;;;;;5047321;28;20033;-88
2021/07/04 08:00:36;;;;;;;5.97;4.05;;;23.80;79.80;;;;;;5051814;28;20025;-87
2021/07/04 08:03:03;;;;;;;7.18;3.72;;;25.00;75.30;;;;;;5046304;28;20057;-84
2021/07/04 08:05:29;;;;;;;6.15;3.83;;;25.30;74.80;;;;;;5044466;28;20025;-87
2021/07/04 08:07:55;;;;;;;5.68;3.67;;;25.20;74.50;;;;;;5047788;28;20018;-86
2021/07/04 08:10:21;;;;;;;5.70;3.53;;;26.30;74.00;;;;;;5053309;28;20056;-87
2021/07/04 08:12:47;;;;;;;8.00;3.65;;;26.80;71.50;;;;;;5044365;28;20484;-87
2021/07/04 08:15:13;;;;;;;5.57;3.78;;;27.00;70.60;;;;;;5037508;28;20026;-87
2021/07/04 08:17:39;;;;;;;5.97;3.90;;;26.20;72.00;;;;;;5042411;28;20025;-88
2021/07/04 08:20:06;;;;;;;11.35;4.30;;;26.20;72.70;;;;;;5049500;28;20040;-88
2021/07/04 08:22:32;;;;;;;5.90;3.70;;;26.10;72.10;;;;;;5047977;28;20117;-88
2021/07/04 08:24:58;;;;;;;5.47;3.55;;;25.70;73.30;;;;;;5058484;28;20112;-88
2021/07/04 08:27:24;;;;;;;5.88;3.65;;;25.00;76.30;;;;;;5051415;28;20029;-87
2021/07/04 08:29:49;;;;;;;8.65;3.88;;;25.00;75.60;;;;;;5046225;28;20057;-88
2021/07/04 08:32:15;;;;;;;9.07;4.22;;;24.20;75.50;;;;;;5049770;28;20021;-87
2021/07/04 08:34:41;;;;;;;6.00;3.53;;;23.30;78.90;;;;;;5040145;28;20349;-87
2021/07/04 08:37:07;;;;;;;5.72;3.47;;;24.20;76.70;;;;;;5043423;28;20033;-87
2021/07/04 08:39:33;;;;;;;6.93;3.80;;;25.00;75.70;;;;;;5041460;28;20461;-86
2021/07/04 08:41:58;;;;;;;6.10;3.65;;;24.20;75.70;;;;;;5042089;28;20068;-87
2021/07/04 08:44:24;;;;;;;6.03;3.13;;;24.20;76.90;;;;;;5036969;28;20431;-87
2021/07/04 08:46:51;;;;;;;6.43;3.83;;;24.70;77.60;;;;;;5036754;28;20356;-86
2021/07/04 08:49:17;;;;;;;8.25;3.83;;;25.00;75.10;;;;;;5035880;28;20041;-86
2021/07/04 08:51:43;;;;;;;6.90;3.70;;;24.90;74.60;;;;;;5043907;28;20017;-86
2021/07/04 08:54:09;;;;;;;6.20;3.53;;;25.30;74.10;;;;;;5038621;28;20030;-87
2021/07/04 08:56:35;;;;;;;5.40;3.60;;;25.40;74.20;;;;;;5039959;28;20017;-87
2021/07/04 08:59:00;;;;;;;5.00;3.28;;;24.50;75.00;;;;;;5036368;28;20029;-87
2021/07/04 09:01:28;;;;;;;7.93;3.85;;;24.20;76.00;;;;;;5040197;28;21906;-85
2021/07/04 09:04:07;;;;;;;6.88;3.80;;;23.20;78.40;;;;;;5037778;28;20033;-87
2021/07/04 09:06:39;;;;;;;8.23;3.80;;;23.50;78.90;;;;;;5039997;28;20572;-87
2021/07/04 09:09:18;;;;;;;6.88;3.83;;;23.70;77.20;;;;;;5038513;28;20414;-86
2021/07/04 09:12:02;;;;;;;6.75;3.33;;;23.90;75.80;;;;;;5038793;28;20029;-87
2021/07/04 09:14:45;;;;;;;6.40;3.85;;;24.10;75.40;;;;;;5037706;28;20033;-86
2021/07/04 09:17:17;;;;;;;5.35;3.42;;;24.30;76.40;;;;;;5045413;28;21321;-86
2021/07/04 09:19:55;;;;;;;7.38;3.92;;;24.20;75.70;;;;;;5035465;28;20033;-87
2021/07/04 09:22:34;;;;;;;7.05;3.90;;;23.30;80.70;;;;;;5038915;28;20040;-87
2021/07/04 09:25:14;;;;;;;7.65;3.40;;;24.10;78.80;;;;;;5041441;28;20057;-87
2021/07/04 09:27:58;;;;;;;6.00;3.50;;;25.70;76.30;;;;;;5043450;28;20301;-87
2021/07/04 09:30:41;;;;;;;5.68;3.67;;;25.30;73.20;;;;;;5045500;28;20082;-86
2021/07/04 09:33:13;;;;;;;6.10;3.40;;;25.10;73.00;;;;;;5051265;28;20414;-87
2021/07/04 09:35:39;;;;;;;6.57;3.90;;;25.40;74.70;;;;;;5057772;28;20020;-87
2021/07/04 09:38:14;;;;;;;5.72;3.65;;;25.20;74.20;;;;;;5044451;28;20097;-86
2021/07/04 09:40:42;;;;;;;5.70;3.65;;;25.30;73.90;;;;;;5040329;28;20013;-85
2021/07/04 09:43:17;;;;;;;5.50;3.33;;;25.30;72.10;;;;;;5039661;28;20112;-87
2021/07/04 09:46:21;;;;;;;5.80;3.40;;;25.10;74.70;;;;;;5039332;28;20080;-86
2021/07/04 09:48:50;;;;;;;6.50;3.95;;;25.60;71.40;;;;;;5015011;28;20040;-86
2021/07/04 09:51:19;;;;;;;6.70;4.20;;;25.70;71.30;;;;;;5014593;28;20038;-86
2021/07/04 09:53:54;;;;;;;7.95;3.60;;;25.20;72.50;;;;;;5026744;28;20134;-85
2021/07/04 09:56:54;;;;;;;6.20;3.75;;;25.70;72.90;;;;;;5036860;28;20030;-86
2021/07/04 09:59:21;;;;;;;5.72;3.85;;;26.70;69.40;;;;;;5043882;28;20490;-87
2021/07/04 10:01:47;;;;;;;5.32;3.50;;;26.40;69.30;;;;;;5040670;28;21863;-86
2021/07/04 10:04:36;;;;;;;5.57;3.47;;;26.30;70.30;;;;;;5044728;28;20037;-86
2021/07/04 10:07:04;;;;;;;5.78;3.65;;;26.40;70.00;;;;;;5036925;28;20047;-86
2021/07/04 10:09:30;;;;;;;6.32;4.10;;;26.70;69.30;;;;;;5044355;28;20107;-86
2021/07/04 10:11:57;;;;;;;7.95;4.07;;;26.70;70.10;;;;;;5041902;28;20036;-83
2021/07/04 10:14:23;;;;;;;6.18;3.78;;;26.40;71.30;;;;;;5046598;28;20033;-85
2021/07/04 10:16:50;;;;;;;6.22;4.13;;;26.10;71.80;;;;;;5043749;28;20063;-86
2021/07/04 10:19:20;;;;;;;6.07;3.92;;;25.90;72.40;;;;;;5053970;28;20056;-85
2021/07/04 10:21:50;;;;;;;6.43;4.03;;;25.70;72.90;;;;;;5049457;28;20033;-86
2021/07/04 10:24:16;;;;;;;5.82;3.85;;;25.70;72.50;;;;;;5048135;28;20033;-85
2021/07/04 10:26:43;;;;;;;5.93;3.83;;;25.40;71.60;;;;;;5054976;28;20024;-86
2021/07/04 10:29:12;;;;;;;7.00;4.10;;;25.40;74.60;;;;;;5056366;28;20060;-86
2021/07/04 10:31:38;;;;;;;6.22;3.85;;;26.00;73.10;;;;;;5053358;28;20732;-84
2021/07/04 10:34:09;;;;;;;6.28;3.53;;;26.40;72.90;;;;;;5048377;28;20025;-86
2021/07/04 10:36:56;;;;;;;6.55;3.90;;;26.70;71.10;;;;;;5038082;28;20029;-85
2021/07/04 10:39:24;;;;;;;6.20;4.38;;;26.70;71.50;;;;;;5046463;28;20397;-85
2021/07/04 10:41:57;;;;;;;6.05;3.85;;;26.50;70.60;;;;;;5051850;28;20044;-86
2021/07/04 10:44:44;;;;;;;6.43;3.63;;;26.00;71.40;;;;;;5053005;28;20058;-85
2021/07/04 10:47:16;;;;;;;6.80;4.20;;;26.10;70.80;;;;;;5054476;28;20130;-85
2021/07/04 10:50:06;;;;;;;5.80;3.88;;;25.50;71.80;;;;;;5045391;28;20048;-85
2021/07/04 10:52:35;;;;;;;5.53;3.67;;;25.60;73.40;;;;;;5034284;28;20407;-84
2021/07/04 10:55:03;;;;;;;6.45;4.25;;;26.00;72.60;;;;;;5051274;28;20100;-85
2021/07/04 10:57:33;;;;;;;6.00;3.85;;;26.10;71.50;;;;;;5041200;28;20048;-85
2021/07/04 11:00:05;;;;;;;7.18;4.50;;;25.60;72.50;;;;;;5047368;28;20032;-84
2021/07/04 11:02:49;;;;;;;6.50;4.18;;;25.00;73.80;;;;;;5055298;28;20057;-84
2021/07/04 11:05:46;;;;;;;7.15;4.47;;;24.30;75.80;;;;;;5040602;28;20032;-84
2021/07/04 11:08:24;;;;;;;6.82;4.38;;;23.80;76.60;;;;;;5043639;28;20039;-84
2021/07/04 11:10:49;;;;;;;5.65;4.05;;;23.90;77.20;;;;;;5047114;28;20095;-84
2021/07/04 11:13:15;;;;;;;7.15;4.40;;;24.10;78.40;;;;;;5039246;28;20111;-85
2021/07/04 11:15:45;;;;;;;5.35;3.75;;;24.50;77.00;;;;;;5047714;28;20053;-86
2021/07/04 11:18:42;;;;;;;6.60;4.10;;;25.00;75.50;;;;;;5047272;28;20449;-86
2021/07/04 11:21:08;;;;;;;6.07;3.95;;;25.50;72.80;;;;;;5048830;28;20029;-85
2021/07/04 11:23:34;;;;;;;5.82;4.03;;;25.40;74.10;;;;;;5042754;28;20024;-84
2021/07/04 11:26:07;;;;;;;6.32;3.70;;;25.00;75.00;;;;;;5045827;28;20025;-85
2021/07/04 11:28:37;;;;;;;6.87;3.90;;;25.10;74.70;;;;;;5045783;28;20036;-83
2021/07/04 11:31:19;;;;;;;6.10;4.18;;;24.90;75.90;;;;;;5043276;28;20048;-85
2021/07/04 11:33:53;;;;;;;5.28;3.50;;;23.90;76.30;;;;;;5042354;28;20021;-84
2021/07/04 11:36:27;;;;;;;7.60;4.22;;;23.40;78.60;;;;;;5047750;28;20036;-85
2021/07/04 11:38:53;;;;;;;5.70;3.70;;;23.70;77.40;;;;;;5046126;28;20029;-83
2021/07/04 11:41:39;;;;;;;6.70;3.70;;;24.00;76.20;;;;;;5047078;28;20052;-85
2021/07/04 11:44:11;;;;;;;7.30;3.85;;;24.70;75.70;;;;;;5049588;28;20061;-83
2021/07/04 11:46:45;;;;;;;5.72;3.67;;;25.40;74.10;;;;;;5048939;28;20078;-85
2021/07/04 11:49:16;;;;;;;5.63;3.90;;;25.70;71.90;;;;;;5043006;28;20017;-85
2021/07/04 11:51:53;;;;;;;5.78;4.00;;;25.80;72.20;;;;;;5057135;28;20017;-84
2021/07/04 11:54:27;;;;;;;6.00;3.45;;;25.70;71.90;;;;;;5044997;28;20049;-84
2021/07/04 11:57:29;;;;;;;5.93;4.03;;;25.40;74.00;;;;;;5039243;28;20052;-85
2021/07/04 11:59:55;;;;;;;8.05;4.05;;;26.00;72.70;;;;;;5048409;28;20034;-84
2021/07/04 12:02:21;;;;;;;6.35;3.90;;;26.30;72.60;;;;;;5051745;28;20426;-84
2021/07/04 12:04:47;;;;;;;6.75;4.03;;;26.40;72.60;;;;;;5048704;28;20036;-85
2021/07/04 12:07:22;;;;;;;5.93;3.78;;;26.50;71.80;;;;;;5050490;28;21763;-85
2021/07/04 12:09:50;;;;;;;6.70;3.70;;;26.30;71.70;;;;;;5049766;28;20033;-85
2021/07/04 12:12:18;;;;;;;6.30;3.72;;;25.60;73.30;;;;;;5046536;28;20109;-85
2021/07/04 12:14:47;;;;;;;6.05;3.72;;;25.10;75.30;;;;;;5056397;28;20021;-84
2021/07/04 12:17:32;;;;;;;5.13;3.40;;;24.50;75.70;;;;;;5053201;28;20091;-84
2021/07/04 12:20:07;;;;;;;6.38;3.83;;;24.30;77.40;;;;;;5053523;28;20029;-84
2021/07/04 12:22:48;;;;;;;6.82;4.00;;;24.10;77.70;;;;;;5051826;28;20043;-85
2021/07/04 12:25:17;;;;;;;6.10;4.10;;;24.10;78.60;;;;;;5053903;28;20037;-84
2021/07/04 12:27:48;;;;;;;5.18;2.95;;;24.20;77.20;;;;;;5053312;28;20103;-83
2021/07/04 12:30:17;;;;;;;9.25;3.10;;;24.40;76.80;;;;;;5051284;28;20433;-84
2021/07/04 12:32:42;;;;;;;4.13;2.30;;;25.20;75.10;;;;;;5049975;28;20444;-84
2021/07/04 12:35:17;;;;;;;4.40;2.42;;;25.70;74.90;;;;;;5053769;28;20021;-84
2021/07/04 12:37:44;;;;;;;3.45;2.20;;;26.70;71.60;;;;;;5046715;28;20048;-83
2021/07/04 12:40:24;;;;;;;3.67;1.88;;;27.20;67.80;;;;;;5047125;28;20021;-84
2021/07/04 12:42:52;;;;;;;4.32;1.92;;;27.30;67.80;;;;;;5044719;28;20029;-84
2021/07/04 12:45:21;;;;;;;4.43;2.10;;;26.90;66.30;;;;;;5050819;28;20045;-84
2021/07/04 12:48:06;;;;;;;3.60;1.77;;;26.60;68.60;;;;;;5042935;28;20037;-85
2021/07/04 12:50:45;;;;;;;3.90;2.05;;;27.00;67.20;;;;;;5053793;28;20061;-84
2021/07/04 12:53:14;;;;;;;3.92;2.00;;;26.80;69.20;;;;;;5056674;28;20021;-85